Time;durP1;ratioP1;P1;durP2;ratioP2;P2;SDS_P1;SDS_P2;PMS_P1;PMS_P2;Temp;Humidity;BMP_temperature;BMP_pressure;BME280_temperature;BME280_humidity;BME280_pressure;Samples;Min_cycle;Max_cycle;Signal;HPM_P1;HPM_P2
2021/08/17 04:16:58;;;;;;;5.60;2.93;;;13.90;98.30;;;;;;5126493;22;20542;-80
2021/08/17 04:19:05;;;;;;;12.37;2.90;;;13.90;98.30;;;;;;5176936;23;20833;-80
2021/08/17 04:21:14;;;;;;;12.23;3.43;;;14.00;98.30;;;;;;5177137;22;20587;-80
2021/08/17 04:40:24;;;;;;;7.63;3.27;;;14.10;98.30;;;;;;4782891;24;20952;-80
2021/08/17 04:42:39;;;;;;;6.63;3.00;;;14.20;98.30;;;;;;4820967;24;20469;-82
2021/08/17 04:45:00;;;;;;;5.80;3.53;;;14.30;98.30;;;;;;4801266;24;20468;-82
2021/08/17 04:47:29;;;;;;;7.60;2.83;;;14.30;98.30;;;;;;4916957;24;20838;-81
2021/08/17 04:49:48;;;;;;;8.73;3.50;;;14.30;98.30;;;;;;4923602;24;20590;-81
2021/08/17 05:01:19;;;;;;;8.57;4.00;;;14.50;98.30;;;;;;4970271;23;20451;-81
2021/08/17 05:03:26;;;;;;;7.57;3.87;;;14.50;98.30;;;;;;4974902;23;20551;-80
2021/08/17 05:05:36;;;;;;;7.67;4.00;;;14.60;98.30;;;;;;5013180;23;20438;-81
2021/08/17 05:07:42;;;;;;;7.63;4.20;;;14.50;98.30;;;;;;5088606;23;20430;-81
2021/08/17 05:09:49;;;;;;;11.50;3.90;;;14.50;98.30;;;;;;5125337;23;20831;-81
2021/08/17 05:11:59;;;;;;;10.93;5.07;;;14.50;98.30;;;;;;5093538;23;20880;-81
2021/08/17 05:14:07;;;;;;;11.77;4.00;;;14.50;98.30;;;;;;5125835;23;21046;-80
2021/08/17 05:16:11;;;;;;;12.00;4.40;;;14.60;98.30;;;;;;5125690;23;20432;-81
2021/08/17 05:20:55;;;;;;;16.93;4.43;;;14.70;98.30;;;;;;5117357;23;20442;-80
2021/08/17 05:23:22;;;;;;;13.00;5.33;;;14.80;98.30;;;;;;5125189;23;20424;-81
2021/08/17 05:25:32;;;;;;;12.07;4.60;;;14.90;98.30;;;;;;5125744;23;20418;-84
2021/08/17 05:27:36;;;;;;;11.30;4.90;;;14.90;98.30;;;;;;5125359;23;20561;-83
2021/08/17 05:29:52;;;;;;;9.43;4.33;;;14.90;98.30;;;;;;5138243;22;20440;-84
2021/08/17 05:32:03;;;;;;;15.97;5.30;;;15.00;98.30;;;;;;5177541;23;20512;-83
2021/08/17 05:34:14;;;;;;;14.00;5.10;;;15.00;98.30;;;;;;5178248;23;20447;-83
2021/08/17 05:36:20;;;;;;;13.77;5.77;;;14.90;98.30;;;;;;5178356;23;20521;-83
2021/08/17 05:38:27;;;;;;;10.47;4.60;;;14.90;98.30;;;;;;5152040;23;20428;-83
2021/08/17 05:40:38;;;;;;;17.53;5.33;;;14.90;98.30;;;;;;5169822;22;21222;-82
2021/08/17 05:42:47;;;;;;;11.57;5.13;;;14.80;98.30;;;;;;5178219;23;20420;-83
2021/08/17 05:44:59;;;;;;;17.20;6.40;;;14.80;98.30;;;;;;5169333;23;20426;-83
2021/08/17 05:47:15;;;;;;;16.60;6.13;;;14.80;98.30;;;;;;5178501;23;20466;-83
2021/08/17 05:49:20;;;;;;;18.90;6.07;;;14.80;98.30;;;;;;5178868;22;20430;-83
2021/08/17 05:51:23;;;;;;;14.23;5.80;;;14.80;98.30;;;;;;5150981;23;21031;-83
2021/08/17 05:53:28;;;;;;;17.93;5.43;;;14.70;98.30;;;;;;5177710;23;20428;-83
2021/08/17 05:55:33;;;;;;;20.10;5.90;;;14.80;98.30;;;;;;5142271;23;20473;-83
2021/08/17 05:57:38;;;;;;;13.27;5.70;;;14.80;98.30;;;;;;5177129;23;20424;-83
2021/08/17 05:59:44;;;;;;;14.43;6.90;;;14.80;98.30;;;;;;5177496;22;20522;-83
2021/08/17 06:01:49;;;;;;;19.90;6.23;;;14.80;98.30;;;;;;5177585;23;20431;-83
2021/08/17 06:03:55;;;;;;;20.67;6.30;;;14.80;98.30;;;;;;5176829;23;20506;-83
2021/08/17 06:06:03;;;;;;;17.53;5.47;;;14.80;98.30;;;;;;5177030;23;20422;-83
2021/08/17 06:08:08;;;;;;;17.03;5.63;;;14.80;98.30;;;;;;5168572;23;20921;-83
2021/08/17 06:10:22;;;;;;;22.77;6.00;;;14.90;98.30;;;;;;5176172;22;20952;-83
2021/08/17 06:12:28;;;;;;;17.97;5.83;;;14.90;98.30;;;;;;5176359;23;20451;-83
2021/08/17 06:14:33;;;;;;;17.70;6.40;;;15.00;98.30;;;;;;5175772;23;20949;-83
2021/08/17 06:16:43;;;;;;;17.30;7.13;;;15.10;98.30;;;;;;5176377;23;20503;-83
2021/08/17 06:18:54;;;;;;;12.37;5.50;;;15.10;98.30;;;;;;5176124;23;20729;-83
2021/08/17 06:20:59;;;;;;;21.33;6.87;;;15.10;98.30;;;;;;5176329;22;20487;-83
2021/08/17 06:23:06;;;;;;;14.10;5.40;;;15.20;98.30;;;;;;5175841;23;20424;-83
2021/08/17 06:25:13;;;;;;;19.30;6.07;;;15.20;98.30;;;;;;5175813;23;20763;-83
2021/08/17 06:27:19;;;;;;;18.60;5.90;;;15.30;98.30;;;;;;5167358;23;20901;-83
2021/08/17 06:29:43;;;;;;;14.90;6.67;;;15.30;98.30;;;;;;5141439;23;20495;-83
2021/08/17 06:31:50;;;;;;;20.57;6.20;;;15.40;98.30;;;;;;5175962;23;20515;-84
2021/08/17 06:34:06;;;;;;;14.77;5.73;;;15.50;98.30;;;;;;5175401;23;20502;-83
2021/08/17 06:36:23;;;;;;;13.40;4.83;;;15.50;98.30;;;;;;5175573;23;20959;-84
2021/08/17 06:38:30;;;;;;;15.50;5.47;;;15.60;98.30;;;;;;5175055;23;20948;-83
2021/08/17 06:40:42;;;;;;;11.33;5.53;;;15.70;98.30;;;;;;5149825;23;20449;-84
2021/08/17 06:42:53;;;;;;;13.03;4.97;;;15.80;98.30;;;;;;5175454;23;20451;-84
2021/08/17 06:45:07;;;;;;;10.80;4.73;;;15.90;98.30;;;;;;5175284;23;20519;-84
2021/08/17 06:47:19;;;;;;;14.83;5.60;;;16.10;98.30;;;;;;5175409;23;20427;-83
2021/08/17 06:49:24;;;;;;;10.77;4.30;;;16.10;98.30;;;;;;5175156;22;20423;-84
2021/08/17 06:51:29;;;;;;;8.50;4.17;;;16.00;98.30;;;;;;5175684;23;20419;-84
2021/08/17 06:54:11;;;;;;;9.67;5.17;;;16.00;98.30;;;;;;5166230;23;20446;-84
2021/08/17 06:56:58;;;;;;;15.17;5.00;;;16.00;98.30;;;;;;5174877;23;20462;-84
2021/08/17 06:59:19;;;;;;;11.30;5.30;;;16.00;98.30;;;;;;5166457;23;20462;-84
2021/08/17 07:01:33;;;;;;;20.70;7.03;;;15.90;98.30;;;;;;5175301;23;20952;-83
2021/08/17 07:03:44;;;;;;;10.93;4.90;;;16.00;98.30;;;;;;5164536;23;20502;-84
2021/08/17 07:05:50;;;;;;;7.93;4.63;;;16.00;98.30;;;;;;5175017;23;20490;-84
2021/08/17 07:07:57;;;;;;;8.00;4.57;;;16.00;98.30;;;;;;5175246;23;20412;-83
2021/08/17 07:10:27;;;;;;;8.63;4.73;;;16.00;98.30;;;;;;5164759;22;20518;-83
2021/08/17 07:15:26;;;;;;;8.67;5.03;;;16.00;98.30;;;;;;5165984;23;20491;-83
2021/08/17 07:17:38;;;;;;;9.50;3.97;;;16.10;98.30;;;;;;5138974;23;20455;-83
2021/08/17 07:19:46;;;;;;;11.50;4.20;;;16.10;98.30;;;;;;5173616;22;20468;-84
2021/08/17 07:22:06;;;;;;;15.43;4.93;;;16.20;98.30;;;;;;5174496;23;20514;-84
2021/08/17 07:24:11;;;;;;;10.40;5.07;;;16.20;98.30;;;;;;5173502;23;20457;-84
2021/08/17 07:26:22;;;;;;;11.83;4.33;;;16.20;98.30;;;;;;5173735;23;20415;-83
2021/08/17 07:28:28;;;;;;;17.73;4.97;;;16.20;98.30;;;;;;5173491;23;20423;-84
2021/08/17 07:30:39;;;;;;;13.60;4.80;;;16.30;98.30;;;;;;5165132;22;20443;-83
2021/08/17 07:32:46;;;;;;;14.73;5.70;;;16.60;98.30;;;;;;5174683;23;20452;-83
2021/08/17 07:35:04;;;;;;;10.43;4.50;;;16.60;98.30;;;;;;5174329;23;20495;-84
2021/08/17 07:37:11;;;;;;;11.20;4.60;;;16.60;98.30;;;;;;5147186;23;20813;-84
2021/08/17 07:39:20;;;;;;;12.97;4.30;;;16.60;98.30;;;;;;5173568;22;20953;-84
2021/08/17 07:41:42;;;;;;;9.33;4.37;;;16.60;98.30;;;;;;5174034;23;20419;-84
2021/08/17 07:43:46;;;;;;;8.90;4.00;;;16.60;98.30;;;;;;5172289;23;20960;-83
2021/08/17 07:46:01;;;;;;;8.07;5.13;;;16.40;98.30;;;;;;5147298;23;20507;-84
2021/08/17 07:48:22;;;;;;;9.33;4.30;;;16.30;98.30;;;;;;5174826;23;20431;-84
2021/08/17 07:50:27;;;;;;;6.40;4.07;;;16.30;98.30;;;;;;5174458;22;20451;-84
2021/08/17 07:52:34;;;;;;;9.23;4.00;;;16.30;98.30;;;;;;5192366;23;20431;-84
2021/08/17 07:54:41;;;;;;;9.30;3.13;;;16.40;98.30;;;;;;5193002;23;20427;-84
2021/08/17 07:56:50;;;;;;;7.63;4.20;;;16.40;98.30;;;;;;5164858;23;20448;-83
2021/08/17 07:58:55;;;;;;;5.30;3.63;;;16.30;98.30;;;;;;5193158;23;20503;-83
2021/08/17 08:01:27;;;;;;;9.50;5.10;;;16.30;98.30;;;;;;5186953;22;20458;-83
2021/08/17 08:03:40;;;;;;;10.17;4.30;;;16.40;98.30;;;;;;5171575;22;20441;-84
2021/08/17 08:05:56;;;;;;;9.87;3.40;;;16.70;98.30;;;;;;5180169;22;20428;-83
2021/08/17 08:08:01;;;;;;;7.53;4.17;;;16.90;98.30;;;;;;5176466;23;20453;-83
2021/08/17 08:10:09;;;;;;;11.53;3.50;;;16.90;98.30;;;;;;5176758;22;20949;-84
2021/08/17 08:12:14;;;;;;;7.93;4.00;;;16.80;98.30;;;;;;5177574;23;20427;-84
2021/08/17 08:14:19;;;;;;;7.00;3.40;;;16.70;98.30;;;;;;5175972;23;20459;-83
2021/08/17 08:16:29;;;;;;;9.60;3.70;;;16.70;98.30;;;;;;5176611;23;20479;-83
2021/08/17 08:18:39;;;;;;;7.00;3.97;;;16.70;98.30;;;;;;5168874;23;20804;-83
2021/08/17 08:20:54;;;;;;;6.27;3.57;;;16.70;98.30;;;;;;5175550;22;20481;-84
2021/08/17 08:23:21;;;;;;;9.10;3.73;;;16.60;98.30;;;;;;5177013;23;20409;-84
2021/08/17 08:25:50;;;;;;;8.10;3.33;;;16.30;98.30;;;;;;5167488;23;20431;-83
2021/08/17 08:28:10;;;;;;;4.60;3.70;;;16.20;98.30;;;;;;5166500;23;20456;-83
2021/08/17 08:30:19;;;;;;;9.03;3.90;;;15.90;98.30;;;;;;5176800;22;20443;-83
2021/08/17 08:32:25;;;;;;;8.70;3.87;;;15.80;98.30;;;;;;5168802;23;20423;-83
2021/08/17 08:34:31;;;;;;;8.20;4.27;;;15.60;98.30;;;;;;5168817;23;20800;-83
2021/08/17 08:36:36;;;;;;;7.40;4.00;;;15.60;98.30;;;;;;5178239;23;20450;-84
2021/08/17 08:38:57;;;;;;;5.60;3.70;;;15.60;98.30;;;;;;5178430;23;21017;-84
2021/08/17 08:41:24;;;;;;;10.03;4.27;;;15.70;98.30;;;;;;5168376;22;20444;-84
2021/08/17 08:43:48;;;;;;;6.23;3.57;;;15.70;98.30;;;;;;5176565;23;20423;-84
2021/08/17 08:45:53;;;;;;;10.47;3.97;;;15.60;98.30;;;;;;5168291;23;20476;-84
2021/08/17 08:48:04;;;;;;;9.90;4.00;;;15.60;98.30;;;;;;5176756;23;20419;-84
2021/08/17 08:50:12;;;;;;;6.13;3.40;;;15.60;98.30;;;;;;5141829;23;20440;-84
2021/08/17 08:52:21;;;;;;;9.07;3.40;;;15.60;98.30;;;;;;5150136;23;20424;-83
2021/08/17 08:54:28;;;;;;;5.67;3.20;;;15.60;98.30;;;;;;5176381;23;20814;-84
2021/08/17 08:56:57;;;;;;;4.90;3.47;;;15.60;98.30;;;;;;5167376;23;20447;-84
2021/08/17 08:59:06;;;;;;;6.73;3.00;;;15.80;98.30;;;;;;5176407;23;20430;-84
2021/08/17 09:01:22;;;;;;;6.27;3.57;;;15.90;98.30;;;;;;5167866;22;20493;-84
2021/08/17 09:04:28;;;;;;;8.90;3.50;;;15.90;98.30;;;;;;5163767;23;20416;-83
2021/08/17 09:06:41;;;;;;;7.87;3.60;;;15.80;98.30;;;;;;5176457;23;20507;-84
2021/08/17 09:09:13;;;;;;;6.47;3.30;;;15.70;98.30;;;;;;5142260;23;20845;-84
2021/08/17 09:11:21;;;;;;;15.70;5.00;;;15.80;98.30;;;;;;5176513;22;20450;-83
2021/08/17 09:13:41;;;;;;;5.37;3.33;;;15.70;98.30;;;;;;5177004;23;20419;-84
2021/08/17 09:16:02;;;;;;;7.90;3.57;;;15.70;98.30;;;;;;5176751;23;20419;-83
2021/08/17 09:18:39;;;;;;;6.00;3.20;;;15.70;98.30;;;;;;5150611;23;20830;-84
2021/08/17 09:23:53;;;;;;;4.67;2.80;;;15.80;98.30;;;;;;5175391;23;20428;-84
2021/08/17 09:26:03;;;;;;;4.53;3.10;;;15.90;98.30;;;;;;5176568;23;20432;-84
2021/08/17 09:30:58;;;;;;;3.63;2.93;;;15.80;98.30;;;;;;5174799;22;20450;-84
2021/08/17 09:33:02;;;;;;;3.23;2.83;;;15.90;98.30;;;;;;5174672;23;20446;-84
2021/08/17 09:35:11;;;;;;;10.67;3.30;;;15.90;98.30;;;;;;5174715;23;20423;-84
2021/08/17 09:37:19;;;;;;;7.30;3.60;;;15.90;98.30;;;;;;5175248;23;20470;-83
2021/08/17 09:39:37;;;;;;;6.93;2.97;;;15.80;98.30;;;;;;5175176;22;20427;-84
2021/08/17 09:41:43;;;;;;;6.70;3.27;;;15.70;98.30;;;;;;5175734;23;20404;-84
2021/08/17 09:44:00;;;;;;;8.70;3.20;;;15.70;98.30;;;;;;5174233;23;20764;-84
2021/08/17 09:46:13;;;;;;;3.53;2.60;;;15.70;98.30;;;;;;5174814;23;20428;-84
2021/08/17 09:48:28;;;;;;;5.20;2.70;;;15.60;98.30;;;;;;5175609;23;20493;-84
2021/08/17 09:50:33;;;;;;;4.37;2.97;;;15.50;98.30;;;;;;5167599;22;20531;-82
2021/08/17 09:52:36;;;;;;;5.20;3.23;;;15.50;98.30;;;;;;5167616;23;20418;-82
2021/08/17 09:54:41;;;;;;;4.00;2.90;;;15.50;98.30;;;;;;5166951;23;20947;-82
2021/08/17 09:56:53;;;;;;;7.53;3.13;;;15.60;98.30;;;;;;5167011;23;20511;-82
2021/08/17 09:58:56;;;;;;;4.80;3.00;;;15.70;98.30;;;;;;5168623;23;20475;-82
2021/08/17 10:01:01;;;;;;;10.10;4.17;;;15.70;98.30;;;;;;5168492;22;20440;-82
2021/08/17 10:03:06;;;;;;;6.17;3.53;;;15.70;98.30;;;;;;5166459;23;20424;-82
2021/08/17 10:05:11;;;;;;;5.57;3.10;;;15.80;98.30;;;;;;5165936;23;20507;-82
2021/08/17 10:07:13;;;;;;;4.87;3.20;;;15.90;98.30;;;;;;5167212;23;20419;-82
2021/08/17 10:09:17;;;;;;;6.73;3.07;;;15.90;98.30;;;;;;5166522;23;20438;-82
2021/08/17 10:11:20;;;;;;;8.70;3.50;;;16.00;98.30;;;;;;5166592;23;20424;-82
2021/08/17 10:13:27;;;;;;;6.60;3.30;;;16.00;98.30;;;;;;5175177;23;20419;-82
2021/08/17 10:15:30;;;;;;;6.53;3.53;;;16.10;98.30;;;;;;5166888;23;20446;-83
2021/08/17 10:17:33;;;;;;;8.57;3.50;;;16.10;98.30;;;;;;5174369;23;21122;-82
2021/08/17 10:19:38;;;;;;;8.70;3.60;;;16.10;98.30;;;;;;5166377;22;20471;-83
2021/08/17 10:21:45;;;;;;;7.50;3.60;;;16.20;98.30;;;;;;5166889;23;20506;-82
2021/08/17 10:23:48;;;;;;;6.03;3.43;;;16.10;98.30;;;;;;5166309;23;20451;-82
2021/08/17 10:25:53;;;;;;;10.37;4.67;;;16.00;98.30;;;;;;5166618;23;20819;-82
2021/08/17 10:27:57;;;;;;;11.47;4.30;;;15.80;98.30;;;;;;5166353;23;20458;-83
2021/08/17 10:30:11;;;;;;;7.27;4.10;;;15.60;98.30;;;;;;5174781;22;20818;-82
2021/08/17 10:32:36;;;;;;;8.80;4.47;;;15.40;98.30;;;;;;5167126;23;20877;-82
2021/08/17 10:34:40;;;;;;;9.50;4.50;;;15.30;98.30;;;;;;5163000;23;20427;-82
2021/08/17 10:36:44;;;;;;;10.83;4.70;;;15.40;98.30;;;;;;5166572;23;20428;-82
2021/08/17 10:38:49;;;;;;;11.03;5.70;;;15.50;98.30;;;;;;5166706;23;20542;-82
2021/08/17 10:41:03;;;;;;;8.50;4.60;;;15.60;98.30;;;;;;5175006;22;20536;-82
2021/08/17 10:43:06;;;;;;;9.23;5.17;;;15.70;98.30;;;;;;5167222;23;20423;-82
2021/08/17 10:45:28;;;;;;;10.97;5.30;;;15.60;98.30;;;;;;5166000;23;20427;-82
2021/08/17 10:47:34;;;;;;;10.70;4.90;;;15.60;98.30;;;;;;5175636;23;20539;-82
2021/08/17 10:49:53;;;;;;;11.00;5.10;;;15.60;98.30;;;;;;5175103;22;20971;-82
2021/08/17 10:51:58;;;;;;;11.60;5.50;;;15.70;98.30;;;;;;5166790;23;20682;-82
2021/08/17 10:54:15;;;;;;;7.70;4.90;;;15.60;98.30;;;;;;5174309;23;20419;-82
2021/08/17 10:56:20;;;;;;;8.97;5.20;;;15.70;98.30;;;;;;5166952;23;20412;-82
2021/08/17 10:58:39;;;;;;;8.03;4.73;;;15.60;98.30;;;;;;5166985;23;20448;-82
2021/08/17 11:01:03;;;;;;;12.83;5.43;;;15.60;98.30;;;;;;5175065;22;20522;-82
2021/08/17 11:03:07;;;;;;;10.30;5.63;;;15.60;98.30;;;;;;5166527;23;20886;-82
2021/08/17 11:05:11;;;;;;;8.03;4.97;;;15.60;98.30;;;;;;5174647;23;20419;-82
2021/08/17 11:07:26;;;;;;;10.73;5.23;;;15.60;98.30;;;;;;5166520;23;20738;-82
2021/08/17 11:09:37;;;;;;;7.43;4.93;;;15.60;98.30;;;;;;5174454;22;20416;-82
2021/08/17 11:11:44;;;;;;;9.67;5.03;;;15.60;98.30;;;;;;5166143;23;20499;-82
2021/08/17 11:14:16;;;;;;;10.93;4.87;;;15.40;98.30;;;;;;5166155;23;20727;-82
2021/08/17 11:16:19;;;;;;;13.40;5.93;;;15.50;98.30;;;;;;5166064;23;20408;-82
2021/08/17 11:18:22;;;;;;;15.50;5.30;;;15.50;98.30;;;;;;5166096;23;20447;-82
2021/08/17 11:20:26;;;;;;;9.87;4.90;;;15.50;98.30;;;;;;5166343;22;20498;-82
2021/08/17 11:22:49;;;;;;;5.67;4.10;;;15.50;98.30;;;;;;5165871;23;20474;-82
2021/08/17 11:24:56;;;;;;;9.23;5.60;;;15.40;98.30;;;;;;5165848;23;20975;-82
2021/08/17 11:27:01;;;;;;;10.87;5.43;;;15.40;98.30;;;;;;5174298;23;20503;-82
2021/08/17 11:29:05;;;;;;;8.57;4.60;;;15.40;98.30;;;;;;5165910;23;20880;-82
2021/08/17 11:31:08;;;;;;;11.67;5.70;;;15.40;98.30;;;;;;5174664;22;20435;-82
2021/08/17 11:33:11;;;;;;;9.33;4.40;;;15.30;98.30;;;;;;5166120;23;20428;-82
2021/08/17 11:35:16;;;;;;;14.63;6.10;;;15.20;98.30;;;;;;5165595;23;20905;-82
2021/08/17 11:37:21;;;;;;;11.70;4.97;;;15.00;98.30;;;;;;5174416;23;20470;-82
2021/08/17 11:39:27;;;;;;;12.20;5.00;;;14.90;98.30;;;;;;5166483;22;20464;-82
2021/08/17 11:41:30;;;;;;;13.37;5.47;;;14.90;98.30;;;;;;5175146;23;20854;-82
2021/08/17 11:43:33;;;;;;;10.83;4.70;;;14.90;98.30;;;;;;5165886;23;20877;-82
2021/08/17 11:45:39;;;;;;;18.90;5.40;;;14.90;98.30;;;;;;5165998;23;20430;-82
2021/08/17 11:47:44;;;;;;;9.97;5.50;;;15.00;98.30;;;;;;5165845;23;20499;-81
2021/08/17 11:49:49;;;;;;;12.17;6.23;;;15.00;98.30;;;;;;5165789;22;20768;-82
2021/08/17 11:52:06;;;;;;;16.77;6.20;;;15.00;98.30;;;;;;5165500;23;20767;-81
2021/08/17 11:54:14;;;;;;;15.03;5.40;;;15.10;98.30;;;;;;5165566;23;20416;-82
2021/08/17 11:56:18;;;;;;;12.10;5.80;;;15.20;98.30;;;;;;5166374;23;20877;-81
2021/08/17 11:58:21;;;;;;;9.30;5.90;;;15.10;98.30;;;;;;5174472;23;20518;-82
2021/08/17 12:00:26;;;;;;;11.47;5.67;;;15.10;98.30;;;;;;5166968;22;20774;-82
2021/08/17 12:02:29;;;;;;;12.50;6.80;;;15.00;98.30;;;;;;5174982;23;20504;-82
2021/08/17 12:04:32;;;;;;;20.30;7.30;;;15.00;98.30;;;;;;5173999;23;20427;-82
2021/08/17 12:06:35;;;;;;;12.10;5.07;;;15.00;98.30;;;;;;5165542;23;20523;-82
2021/08/17 12:08:39;;;;;;;14.77;6.97;;;15.10;98.30;;;;;;5166008;23;20430;-81
2021/08/17 12:10:45;;;;;;;11.10;6.40;;;15.10;98.30;;;;;;5174178;22;20444;-82
2021/08/17 12:12:54;;;;;;;12.53;5.53;;;15.10;98.30;;;;;;5183096;23;20422;-82
2021/08/17 12:15:09;;;;;;;15.53;5.93;;;15.00;98.30;;;;;;5174585;23;20422;-81
2021/08/17 12:17:21;;;;;;;11.17;6.70;;;15.10;98.30;;;;;;5183363;23;20475;-82
2021/08/17 12:19:25;;;;;;;16.00;6.50;;;15.00;98.30;;;;;;5151577;23;20436;-82
2021/08/17 12:21:31;;;;;;;11.47;5.60;;;15.10;98.30;;;;;;5152151;23;20827;-82
2021/08/17 12:23:36;;;;;;;10.63;5.87;;;15.00;98.30;;;;;;5160009;23;20723;-82
2021/08/17 12:25:39;;;;;;;16.43;6.97;;;15.10;98.30;;;;;;5148472;23;20496;-82
2021/08/17 12:27:53;;;;;;;16.20;6.00;;;15.10;98.30;;;;;;5151103;23;20460;-82
2021/08/17 12:29:57;;;;;;;14.57;7.40;;;15.10;98.30;;;;;;5151114;23;21021;-82
2021/08/17 12:32:16;;;;;;;12.90;7.07;;;15.10;98.30;;;;;;5142035;23;20487;-82
2021/08/17 12:34:19;;;;;;;10.83;6.00;;;15.20;98.30;;;;;;5150295;23;20731;-82
2021/08/17 12:36:27;;;;;;;10.30;7.80;;;15.20;98.30;;;;;;5150937;23;20435;-82
2021/08/17 12:38:39;;;;;;;14.13;6.93;;;15.20;98.30;;;;;;5142516;23;20413;-82
2021/08/17 12:40:47;;;;;;;15.40;6.57;;;15.30;98.30;;;;;;5150349;23;20841;-82
2021/08/17 12:42:51;;;;;;;13.83;6.63;;;15.20;98.30;;;;;;5142032;23;20429;-82
2021/08/17 12:44:56;;;;;;;11.80;6.63;;;15.20;98.30;;;;;;5141963;23;20926;-82
2021/08/17 12:47:01;;;;;;;15.73;7.17;;;15.30;98.30;;;;;;5141842;23;20429;-82
2021/08/17 12:49:04;;;;;;;15.50;6.57;;;15.30;98.30;;;;;;5150211;23;20431;-82
2021/08/17 12:51:07;;;;;;;12.70;6.20;;;15.40;98.30;;;;;;5141560;23;20444;-82
2021/08/17 12:53:20;;;;;;;17.03;8.50;;;15.30;98.30;;;;;;5149873;23;20478;-81
2021/08/17 12:55:27;;;;;;;17.70;7.30;;;15.30;98.30;;;;;;5141214;23;20504;-83
2021/08/17 12:57:35;;;;;;;17.90;6.60;;;15.30;98.30;;;;;;5142451;23;20412;-82
2021/08/17 12:59:40;;;;;;;16.63;7.80;;;15.40;98.30;;;;;;5149635;23;20992;-82
2021/08/17 13:01:44;;;;;;;15.00;7.27;;;15.40;98.30;;;;;;5141306;23;20444;-82
2021/08/17 13:03:47;;;;;;;15.60;7.40;;;15.50;98.30;;;;;;5140230;23;20720;-82
2021/08/17 13:05:50;;;;;;;15.27;7.17;;;15.60;98.30;;;;;;5149015;23;20421;-82
2021/08/17 13:07:55;;;;;;;20.10;8.00;;;15.60;98.30;;;;;;5149503;23;20483;-82
2021/08/17 13:09:59;;;;;;;15.30;7.13;;;15.60;98.30;;;;;;5140980;23;20905;-82
2021/08/17 13:12:04;;;;;;;17.50;7.60;;;15.70;98.30;;;;;;5148978;23;20823;-82
2021/08/17 13:14:08;;;;;;;16.90;8.13;;;15.60;98.30;;;;;;5140982;23;20803;-82
2021/08/17 13:16:14;;;;;;;15.80;7.77;;;15.50;98.30;;;;;;5141180;23;20435;-82
2021/08/17 13:18:17;;;;;;;18.50;7.40;;;15.40;98.30;;;;;;5149369;23;20437;-82
2021/08/17 13:20:22;;;;;;;15.33;6.90;;;15.40;98.30;;;;;;5142892;23;20976;-82
2021/08/17 13:22:25;;;;;;;15.20;6.87;;;15.30;98.30;;;;;;5151500;23;20503;-82
2021/08/17 13:24:29;;;;;;;12.13;6.63;;;15.30;98.30;;;;;;5150402;23;20471;-82
2021/08/17 13:26:32;;;;;;;14.03;6.13;;;15.30;98.30;;;;;;5143077;23;20443;-82
2021/08/17 13:28:35;;;;;;;12.50;6.70;;;15.30;98.30;;;;;;5151764;23;20426;-82
2021/08/17 13:30:38;;;;;;;10.13;5.80;;;15.40;98.30;;;;;;5150925;23;20953;-82
2021/08/17 13:32:42;;;;;;;11.70;6.03;;;15.50;98.30;;;;;;5142678;23;20492;-82
2021/08/17 13:34:47;;;;;;;16.80;7.23;;;15.60;98.30;;;;;;5142012;23;20440;-82
2021/08/17 13:36:50;;;;;;;18.93;6.67;;;15.70;98.30;;;;;;5150769;23;20417;-82
2021/08/17 13:38:53;;;;;;;14.67;6.90;;;15.70;98.30;;;;;;5151059;23;20428;-82
2021/08/17 13:40:56;;;;;;;12.00;7.10;;;15.70;98.30;;;;;;5142055;23;20449;-82
2021/08/17 13:42:59;;;;;;;25.40;7.20;;;15.70;98.30;;;;;;5142246;23;20432;-82
2021/08/17 13:45:02;;;;;;;14.47;8.00;;;15.90;98.30;;;;;;5142088;23;20428;-82
2021/08/17 13:47:07;;;;;;;13.80;6.60;;;15.90;98.30;;;;;;5142585;23;20431;-83
2021/08/17 13:49:12;;;;;;;15.23;7.07;;;15.90;98.30;;;;;;5142535;23;20535;-82
2021/08/17 13:51:14;;;;;;;15.67;6.93;;;15.90;98.30;;;;;;5142254;23;20451;-82
2021/08/17 13:53:19;;;;;;;13.97;7.00;;;15.90;98.30;;;;;;5142259;23;20965;-82
2021/08/17 13:55:22;;;;;;;12.73;7.20;;;15.80;98.30;;;;;;5141596;23;20453;-82
2021/08/17 13:57:25;;;;;;;14.53;7.33;;;15.70;98.30;;;;;;5141901;23;20439;-82
2021/08/17 13:59:28;;;;;;;14.17;6.90;;;15.70;98.30;;;;;;5150141;23;20421;-82
2021/08/17 14:01:31;;;;;;;12.10;6.73;;;15.60;98.30;;;;;;5142233;23;20922;-82
2021/08/17 14:03:34;;;;;;;10.87;5.47;;;15.60;98.30;;;;;;5141865;23;20921;-82
2021/08/17 14:05:39;;;;;;;19.00;6.87;;;15.50;98.30;;;;;;5142198;23;20429;-82
2021/08/17 14:07:43;;;;;;;13.37;6.60;;;15.40;98.30;;;;;;5150831;23;20405;-82
2021/08/17 14:09:49;;;;;;;17.13;8.50;;;15.40;98.30;;;;;;5142376;23;20753;-83
2021/08/17 14:11:53;;;;;;;11.33;6.17;;;15.40;98.30;;;;;;5150658;23;20842;-82
2021/08/17 14:13:58;;;;;;;14.47;7.20;;;15.40;98.30;;;;;;5150656;23;20429;-82
2021/08/17 14:16:02;;;;;;;13.40;6.97;;;15.50;98.30;;;;;;5142143;23;20432;-82
2021/08/17 14:18:08;;;;;;;14.80;7.17;;;15.50;98.30;;;;;;5141894;23;20437;-82
2021/08/17 14:20:12;;;;;;;11.10;6.47;;;15.50;98.30;;;;;;5141891;23;20456;-82
2021/08/17 14:22:17;;;;;;;14.20;6.73;;;15.50;98.30;;;;;;5150277;23;20932;-82
2021/08/17 14:24:20;;;;;;;19.53;7.50;;;15.50;98.30;;;;;;5141530;23;20428;-83
2021/08/17 14:26:25;;;;;;;18.50;7.07;;;15.50;98.30;;;;;;5141653;23;20949;-83
2021/08/17 14:28:28;;;;;;;18.63;7.10;;;15.60;98.30;;;;;;5142020;23;20436;-82
2021/08/17 14:30:31;;;;;;;14.67;6.93;;;15.60;98.30;;;;;;5149198;23;20439;-82
2021/08/17 14:32:34;;;;;;;14.67;6.97;;;15.50;98.30;;;;;;5141733;23;20942;-82
2021/08/17 14:34:37;;;;;;;19.73;7.60;;;15.50;98.30;;;;;;5149901;23;20499;-83
2021/08/17 14:36:40;;;;;;;19.33;6.60;;;15.50;98.30;;;;;;5150341;23;20463;-82
2021/08/17 14:38:45;;;;;;;14.80;7.60;;;15.50;98.30;;;;;;5141980;23;20435;-82
2021/08/17 14:40:48;;;;;;;17.90;7.30;;;15.60;98.30;;;;;;5150198;23;20762;-82
2021/08/17 14:42:51;;;;;;;15.90;7.73;;;15.60;98.30;;;;;;5141476;23;20429;-82
2021/08/17 14:44:54;;;;;;;15.10;7.27;;;15.70;98.30;;;;;;5149469;23;21098;-82
2021/08/17 14:46:57;;;;;;;15.70;7.73;;;15.70;98.30;;;;;;5149488;23;20757;-82
2021/08/17 14:49:03;;;;;;;15.67;7.47;;;15.70;98.30;;;;;;5149868;23;20424;-82
2021/08/17 14:51:11;;;;;;;14.60;6.97;;;15.70;98.30;;;;;;5141513;23;20835;-83
2021/08/17 14:53:15;;;;;;;13.83;7.17;;;15.70;98.30;;;;;;5141530;23;20413;-83
2021/08/17 14:55:20;;;;;;;16.00;7.80;;;15.80;98.30;;;;;;5140875;23;20452;-82
2021/08/17 14:57:23;;;;;;;18.80;7.80;;;15.80;98.30;;;;;;5149742;23;20425;-82
2021/08/17 14:59:26;;;;;;;13.33;6.67;;;15.90;98.30;;;;;;5149558;23;20568;-82
2021/08/17 15:01:29;;;;;;;14.00;7.07;;;15.90;98.30;;;;;;5149749;23;20445;-83
2021/08/17 15:03:33;;;;;;;13.67;7.63;;;15.90;98.30;;;;;;5149386;23;20528;-82
2021/08/17 15:05:40;;;;;;;13.67;7.67;;;16.00;98.30;;;;;;5141131;23;20432;-82
2021/08/17 15:07:46;;;;;;;16.27;6.87;;;16.30;98.30;;;;;;5141654;23;20417;-82
2021/08/17 15:09:50;;;;;;;13.20;7.40;;;16.40;98.30;;;;;;5150302;23;20790;-82
2021/08/17 15:11:54;;;;;;;18.77;8.70;;;16.30;98.30;;;;;;5150667;23;20455;-82
2021/08/17 15:13:57;;;;;;;16.27;8.50;;;16.40;98.30;;;;;;5149793;23;20432;-82
2021/08/17 15:16:00;;;;;;;18.23;6.50;;;16.40;98.30;;;;;;5141561;23;20436;-82
2021/08/17 15:18:03;;;;;;;14.43;6.83;;;16.40;98.30;;;;;;5141426;23;20523;-82
2021/08/17 15:20:09;;;;;;;15.23;6.80;;;16.40;98.30;;;;;;5141363;23;20449;-82
2021/08/17 15:22:12;;;;;;;18.47;10.80;;;16.40;98.30;;;;;;5149664;23;20765;-82
2021/08/17 15:24:15;;;;;;;21.13;7.63;;;16.30;98.30;;;;;;5149350;23;20496;-82
2021/08/17 15:26:18;;;;;;;17.17;7.37;;;16.30;98.30;;;;;;5141778;23;20440;-82
2021/08/17 15:28:23;;;;;;;16.80;8.23;;;16.30;98.30;;;;;;5141566;23;20926;-82
2021/08/17 15:30:26;;;;;;;13.47;6.80;;;16.30;98.30;;;;;;5149938;23;20677;-82
2021/08/17 15:32:32;;;;;;;12.20;6.30;;;16.20;98.30;;;;;;5149537;23;20417;-82
2021/08/17 15:34:35;;;;;;;14.53;7.20;;;16.10;98.30;;;;;;5148925;23;20499;-82
2021/08/17 15:36:39;;;;;;;14.53;6.90;;;16.10;98.30;;;;;;5149237;23;20543;-82
2021/08/17 15:38:42;;;;;;;19.37;6.90;;;16.20;98.30;;;;;;5141661;23;20488;-82
2021/08/17 15:40:45;;;;;;;11.70;6.67;;;16.30;98.30;;;;;;5141150;23;20453;-82
2021/08/17 15:42:51;;;;;;;11.50;7.00;;;16.40;98.30;;;;;;5149664;23;20429;-81
2021/08/17 15:44:57;;;;;;;12.70;5.47;;;16.40;98.30;;;;;;5141189;23;20425;-82
2021/08/17 15:47:09;;;;;;;20.07;6.57;;;16.50;98.30;;;;;;5141511;23;20424;-82
2021/08/17 15:49:12;;;;;;;16.07;6.60;;;16.60;98.30;;;;;;5149707;23;20452;-82
2021/08/17 15:51:18;;;;;;;11.27;6.90;;;16.60;98.30;;;;;;5141066;23;21001;-82
2021/08/17 15:53:21;;;;;;;16.03;7.60;;;16.70;98.30;;;;;;5149249;23;20419;-82
2021/08/17 15:55:24;;;;;;;18.97;7.30;;;16.70;98.30;;;;;;5140805;23;20433;-82
2021/08/17 15:57:30;;;;;;;13.17;7.53;;;16.80;98.30;;;;;;5140617;23;20460;-82